Time;durP1;ratioP1;P1;durP2;ratioP2;P2;SDS_P1;SDS_P2;PMS_P1;PMS_P2;Temp;Humidity;BMP_temperature;BMP_pressure;BME280_temperature;BME280_humidity;BME280_pressure;Samples;Min_cycle;Max_cycle;Signal;HPM_P1;HPM_P2
2022/04/17 00:01:02;;;;;;;3.10;2.40;;;17.70;78.50;;;17.74;39.03;102644.09;4936493;28;97424;-64
2022/04/17 00:03:29;;;;;;;2.60;2.40;;;17.70;82.30;;;17.74;39.06;102641.44;4939111;28;97335;-64
2022/04/17 00:05:55;;;;;;;2.83;2.33;;;17.70;79.90;;;17.76;39.10;102646.72;4936272;28;97103;-64
2022/04/17 00:08:21;;;;;;;2.97;2.63;;;17.70;81.00;;;17.75;38.94;102650.31;4940013;28;98796;-68
2022/04/17 00:10:47;;;;;;;2.73;2.27;;;17.70;78.70;;;17.74;38.96;102632.56;4940126;28;97349;-64
2022/04/17 00:13:14;;;;;;;2.40;2.20;;;17.70;79.50;;;17.75;39.00;102639.63;4941601;28;97345;-64
2022/04/17 00:15:40;;;;;;;2.73;2.40;;;17.70;80.20;;;17.74;38.77;102632.56;4938749;28;97796;-64
2022/04/17 00:18:06;;;;;;;2.73;2.47;;;17.70;79.80;;;17.78;38.52;102634.19;4940484;28;97356;-64
2022/04/17 00:20:33;;;;;;;2.73;2.40;;;17.70;81.50;;;17.76;38.73;102636.03;4937029;28;97123;-64
2022/04/17 00:22:58;;;;;;;6.60;4.97;;;17.70;80.00;;;17.68;37.88;102633.66;4941261;28;97575;-64
2022/04/17 00:25:24;;;;;;;2.50;2.30;;;17.60;75.50;;;17.67;38.69;102636.34;4934789;28;97506;-64
2022/04/17 00:27:50;;;;;;;4.13;2.70;;;17.50;81.50;;;17.69;38.65;102639.84;4942583;28;97651;-64
2022/04/17 00:30:16;;;;;;;2.77;2.20;;;17.60;81.20;;;17.66;38.90;102634.59;4940544;28;118921;-64
2022/04/17 00:32:42;;;;;;;2.40;2.20;;;17.50;81.10;;;17.68;38.55;102638.06;4936235;28;105673;-64
2022/04/17 00:35:09;;;;;;;2.90;2.50;;;17.60;81.40;;;17.72;38.38;102629.06;4939140;28;97405;-64
2022/04/17 00:37:36;;;;;;;3.07;2.60;;;17.70;81.10;;;17.73;38.35;102630.81;4948285;28;100735;-64
2022/04/17 00:40:07;;;;;;;3.63;2.60;;;17.70;79.00;;;17.75;38.72;102623.63;4940448;28;100185;-64
2022/04/17 00:42:32;;;;;;;2.90;2.60;;;17.70;81.20;;;17.75;38.49;102612.94;4936942;28;97690;-63
2022/04/17 00:44:58;;;;;;;3.27;2.40;;;17.70;81.20;;;17.75;38.54;102619.16;4944214;28;96961;-63
2022/04/17 00:47:24;;;;;;;2.90;2.60;;;17.70;79.40;;;17.75;38.57;102615.59;4935545;28;100486;-64
2022/04/17 00:49:50;;;;;;;3.10;2.43;;;17.70;81.10;;;17.75;38.76;102612.94;4939476;28;97758;-64
2022/04/17 00:52:17;;;;;;;4.97;3.50;;;17.70;80.40;;;17.72;38.47;102613.06;4941139;28;97329;-64
2022/04/17 00:54:45;;;;;;;3.77;2.83;;;17.70;75.80;;;17.68;38.54;102620.31;4941252;28;97468;-64
2022/04/17 00:57:15;;;;;;;3.83;2.97;;;17.60;77.50;;;17.59;38.86;102617.03;4940565;28;96852;-64
2022/04/17 00:59:42;;;;;;;5.03;4.37;;;17.40;79.10;;;17.54;37.23;102617.19;4936634;28;97025;-64
2022/04/17 01:02:09;;;;;;;4.13;3.40;;;17.40;73.70;;;17.46;39.04;102612.09;4934330;28;97530;-64
2022/04/17 01:04:36;;;;;;;4.13;3.20;;;17.20;79.70;;;17.40;38.87;102612.31;4935277;28;97295;-64
2022/04/17 01:07:04;;;;;;;3.40;2.80;;;17.20;75.90;;;17.37;39.44;102609.75;4936570;28;97328;-64
2022/04/17 01:09:34;;;;;;;2.60;2.40;;;17.10;79.50;;;17.33;39.57;102605.44;4922634;28;102498;-64
2022/04/17 01:12:09;;;;;;;3.60;3.17;;;17.00;81.50;;;17.25;39.45;102615.50;4937642;28;97293;-63
2022/04/17 01:14:40;;;;;;;2.40;2.20;;;16.90;77.20;;;17.22;39.81;102607.59;4913021;28;97311;-63
2022/04/17 01:17:08;;;;;;;3.03;2.73;;;16.90;81.80;;;17.12;39.94;102606.16;4948830;28;96920;-63
2022/04/17 01:19:39;;;;;;;2.57;2.10;;;16.70;78.70;;;17.09;40.03;102606.25;4946508;28;97601;-64
2022/04/17 01:22:08;;;;;;;2.57;2.30;;;16.70;81.40;;;17.09;40.09;102595.59;4933760;28;97302;-64
2022/04/17 01:27:21;;;;;;;3.07;2.37;;;16.70;77.90;;;17.06;40.16;102606.31;4954431;28;96995;-64
2022/04/17 01:29:47;;;;;;;2.27;2.07;;;16.70;82.40;;;17.06;40.43;102601.88;4955572;28;101664;-64
2022/04/17 01:32:14;;;;;;;2.50;1.80;;;16.80;84.10;;;17.10;40.12;102600.00;4965919;28;96684;-64
2022/04/17 01:34:41;;;;;;;2.37;2.17;;;16.80;82.90;;;17.15;40.16;102595.38;4954815;28;97478;-64
2022/04/17 01:37:06;;;;;;;2.93;2.33;;;16.90;84.10;;;17.18;40.02;102589.94;4972725;28;117450;-64
2022/04/17 01:39:33;;;;;;;3.03;2.67;;;17.00;83.80;;;17.25;40.12;102596.84;4964794;28;97179;-64
2022/04/17 01:42:00;;;;;;;2.53;2.27;;;17.10;83.40;;;17.30;39.63;102589.53;4952771;28;97513;-64
2022/04/17 01:44:28;;;;;;;3.10;2.00;;;17.20;82.30;;;17.30;39.96;102597.53;4955320;28;97311;-64
2022/04/17 01:46:55;;;;;;;2.63;2.07;;;17.20;82.70;;;17.27;39.78;102597.66;4955814;28;97145;-64
2022/04/17 01:49:23;;;;;;;2.20;2.00;;;17.10;81.50;;;17.25;39.77;102602.16;4972977;28;100539;-67
2022/04/17 01:51:52;;;;;;;2.20;2.00;;;17.10;81.80;;;17.24;40.04;102595.09;4952349;28;97330;-64
2022/04/17 01:54:20;;;;;;;2.93;2.30;;;17.00;83.00;;;17.18;39.86;102595.28;4946266;28;96857;-64
2022/04/17 01:56:47;;;;;;;2.40;2.20;;;16.90;78.70;;;17.14;40.16;102593.63;4953532;28;102982;-64
2022/04/17 01:59:14;;;;;;;2.60;2.40;;;16.90;79.50;;;17.08;40.32;102594.72;4952755;28;97603;-63
2022/04/17 02:01:40;;;;;;;3.27;2.40;;;16.80;83.00;;;17.06;40.47;102595.66;4951194;28;97410;-64
2022/04/17 02:04:09;;;;;;;2.30;1.90;;;16.70;83.70;;;17.04;40.37;102592.19;4951129;28;97334;-64
2022/04/17 02:06:35;;;;;;;2.23;2.03;;;16.70;84.50;;;17.08;40.45;102585.84;4956625;28;97518;-64
2022/04/17 02:09:03;;;;;;;2.20;1.83;;;16.80;84.30;;;17.13;40.06;102581.22;4957918;28;96965;-63
2022/04/17 02:11:32;;;;;;;1.83;1.73;;;16.90;84.00;;;17.21;40.02;102579.16;4935410;28;96862;-64
2022/04/17 02:14:03;;;;;;;1.80;1.70;;;17.00;84.00;;;17.24;39.95;102581.75;4916955;28;97102;-63
2022/04/17 02:16:29;;;;;;;2.40;1.80;;;17.10;83.70;;;17.31;39.87;102585.94;4928804;28;98035;-64
2022/04/17 02:18:55;;;;;;;3.10;2.37;;;17.20;83.50;;;17.39;39.68;102585.69;4949231;28;119324;-64
2022/04/17 02:21:21;;;;;;;2.50;2.30;;;17.30;83.10;;;17.38;39.45;102582.16;4954449;28;107361;-65
2022/04/17 02:23:47;;;;;;;3.10;2.30;;;17.40;81.40;;;17.44;39.44;102581.94;4951022;28;97145;-64
2022/04/17 02:26:18;;;;;;;2.33;1.87;;;17.40;82.60;;;17.50;39.28;102576.41;4957078;28;98980;-64
2022/04/17 02:28:43;;;;;;;1.80;1.70;;;17.50;82.20;;;17.55;39.03;102579.78;4951932;28;97160;-64
2022/04/17 02:31:10;;;;;;;1.93;1.63;;;17.60;81.80;;;17.58;38.73;102583.28;4955754;28;97104;-63
2022/04/17 02:33:38;;;;;;;2.00;1.67;;;17.60;81.30;;;17.57;38.81;102581.53;4956925;28;97063;-64
2022/04/17 02:36:05;;;;;;;2.20;1.83;;;17.60;80.80;;;17.61;38.81;102569.81;4958647;28;97362;-63
2022/04/17 02:38:31;;;;;;;1.70;1.60;;;17.60;81.60;;;17.64;38.71;102572.38;4955775;28;98722;-64
2022/04/17 02:40:57;;;;;;;2.00;1.80;;;17.60;81.10;;;17.65;38.70;102563.44;4953889;28;96911;-64
2022/04/17 02:43:23;;;;;;;1.97;1.77;;;17.70;81.30;;;17.67;38.61;102556.28;4955515;28;97467;-64
2022/04/17 02:45:52;;;;;;;2.80;1.93;;;17.70;81.30;;;17.71;38.66;102549.94;4960334;28;99138;-63
2022/04/17 02:48:19;;;;;;;1.70;1.60;;;17.80;81.30;;;17.76;38.67;102545.28;4955766;28;97217;-64
2022/04/17 02:50:47;;;;;;;2.10;1.73;;;17.80;80.90;;;17.78;38.61;102556.78;4947259;28;97313;-63
2022/04/17 02:53:13;;;;;;;1.90;1.60;;;17.90;80.90;;;17.79;38.36;102539.81;4956979;28;98050;-62
2022/04/17 02:55:39;;;;;;;2.03;1.83;;;17.90;80.70;;;17.83;38.20;102544.16;4956728;28;96914;-62
2022/04/17 02:58:05;;;;;;;1.93;1.47;;;17.90;80.50;;;17.83;38.16;102538.81;4965353;28;97465;-62
2022/04/17 03:00:31;;;;;;;2.53;2.13;;;17.90;80.30;;;17.84;38.24;102533.41;4954965;28;98062;-62
2022/04/17 03:05:42;;;;;;;2.23;1.80;;;17.90;80.30;;;17.83;38.13;102545.03;4952756;28;96902;-62
2022/04/17 03:08:13;;;;;;;2.27;1.73;;;17.90;77.40;;;17.83;38.17;102542.34;4955375;28;116713;-62
2022/04/17 03:10:47;;;;;;;1.93;1.80;;;17.80;80.30;;;17.83;37.95;102541.47;4952421;28;97230;-62
2022/04/17 03:13:14;;;;;;;1.63;1.53;;;17.80;79.50;;;17.80;38.48;102544.28;4954171;28;96773;-62
2022/04/17 03:15:39;;;;;;;1.93;1.73;;;17.80;80.50;;;17.79;38.39;102545.16;4955021;28;97417;-62
2022/04/17 03:18:08;;;;;;;2.07;1.90;;;17.80;80.30;;;17.77;38.34;102552.34;4952615;28;97228;-62
2022/04/17 03:20:34;;;;;;;1.93;1.73;;;17.70;80.10;;;17.78;38.42;102548.75;4961672;28;96647;-62
2022/04/17 03:23:01;;;;;;;1.67;1.57;;;17.80;80.60;;;17.75;38.34;102546.22;4957107;28;97956;-62
2022/04/17 03:25:27;;;;;;;2.20;1.87;;;17.80;80.60;;;17.75;38.22;102540.88;4953609;28;96986;-63
2022/04/17 03:27:53;;;;;;;1.63;1.53;;;17.70;80.50;;;17.74;38.31;102548.00;4958023;28;97790;-63
2022/04/17 03:30:19;;;;;;;1.50;1.40;;;17.80;80.50;;;17.77;38.15;102544.34;4958160;28;97379;-63
2022/04/17 03:32:47;;;;;;;2.07;1.77;;;17.80;80.30;;;17.79;37.93;102545.16;4962505;28;97153;-63
2022/04/17 03:35:15;;;;;;;2.27;1.80;;;17.80;80.00;;;17.80;37.97;102536.25;4955955;28;96997;-63
2022/04/17 03:37:44;;;;;;;2.70;1.83;;;17.90;79.70;;;17.82;37.71;102545.09;4952144;28;97328;-63
2022/04/17 03:40:16;;;;;;;1.73;1.40;;;17.90;79.50;;;17.83;37.74;102547.69;4949490;28;97047;-63
2022/04/17 03:42:42;;;;;;;1.93;1.57;;;17.90;79.20;;;17.84;37.50;102537.88;4982550;28;97721;-63
2022/04/17 03:45:11;;;;;;;1.97;1.80;;;17.90;78.90;;;17.87;37.47;102532.44;4949692;28;97549;-63
2022/04/17 03:47:38;;;;;;;1.87;1.70;;;17.90;78.70;;;17.86;37.25;102530.69;4956536;28;97270;-63
2022/04/17 03:50:05;;;;;;;1.80;1.70;;;17.90;78.50;;;17.87;37.10;102529.75;4957621;28;96856;-63
2022/04/17 03:52:46;;;;;;;1.50;1.40;;;17.90;78.50;;;17.86;37.36;102536.03;4970138;28;97020;-63
2022/04/17 03:55:13;;;;;;;2.00;1.50;;;17.90;78.40;;;17.73;37.58;102534.72;4958690;28;97463;-63
2022/04/17 03:57:39;;;;;;;1.60;1.47;;;17.70;76.80;;;17.72;37.24;102535.66;4964652;28;97100;-63
2022/04/17 04:00:09;;;;;;;1.90;1.37;;;17.70;79.20;;;17.73;37.81;102529.38;4959842;28;105300;-64
2022/04/17 04:02:36;;;;;;;1.87;1.60;;;17.70;79.20;;;17.73;37.46;102532.94;4959129;28;97586;-63
2022/04/17 04:05:02;;;;;;;1.80;1.50;;;17.70;80.00;;;17.73;37.66;102526.72;4952044;28;97044;-63
2022/04/17 04:07:28;;;;;;;2.03;1.50;;;17.80;78.70;;;17.74;37.92;102528.44;4959125;28;97093;-63
2022/04/17 04:09:53;;;;;;;1.20;1.10;;;17.80;79.50;;;17.75;37.70;102528.41;4964261;28;97105;-63
2022/04/17 04:12:20;;;;;;;1.70;1.50;;;17.80;79.30;;;17.73;37.84;102529.38;4974722;28;96592;-63
2022/04/17 04:14:46;;;;;;;1.50;1.40;;;17.80;77.50;;;17.69;38.21;102528.63;4956547;28;101628;-62
2022/04/17 04:17:12;;;;;;;2.00;1.60;;;17.70;80.20;;;17.65;38.08;102539.41;4960372;28;97837;-62
2022/04/17 04:19:37;;;;;;;2.23;1.53;;;17.60;79.30;;;17.58;38.18;102527.22;4953974;28;97512;-63
2022/04/17 04:22:04;;;;;;;2.33;1.90;;;17.50;79.20;;;17.47;38.54;102533.81;4964241;28;97020;-63
2022/04/17 04:24:31;;;;;;;1.47;1.30;;;17.30;78.40;;;17.44;38.37;102533.06;4949274;28;97406;-64
2022/04/17 04:29:42;;;;;;;1.63;1.53;;;17.20;77.90;;;17.28;39.08;102532.72;4943284;28;97210;-63
2022/04/17 04:32:22;;;;;;;1.90;1.37;;;17.10;81.80;;;17.28;39.05;102527.38;4946676;28;97305;-64
2022/04/17 04:34:48;;;;;;;2.03;1.40;;;17.00;82.00;;;17.24;39.23;102531.94;4948807;28;101064;-63
2022/04/17 04:37:14;;;;;;;2.00;1.63;;;17.00;80.10;;;17.18;39.32;102528.59;4976011;28;97485;-64
2022/04/17 04:39:40;;;;;;;1.53;1.30;;;17.00;80.80;;;17.12;39.63;102523.50;4952133;28;96993;-63
2022/04/17 04:42:07;;;;;;;2.73;1.67;;;16.90;82.00;;;17.05;39.63;102525.47;4972447;28;97241;-63
2022/04/17 04:44:32;;;;;;;1.40;1.30;;;16.70;81.00;;;17.04;39.88;102520.19;4947060;28;98079;-63
2022/04/17 04:46:58;;;;;;;1.63;1.53;;;16.70;83.80;;;17.03;39.95;102518.44;4953663;28;97710;-63
2022/04/17 04:49:30;;;;;;;1.53;1.23;;;16.70;82.70;;;17.02;39.97;102516.72;4951959;28;96831;-64
2022/04/17 04:51:58;;;;;;;1.53;1.43;;;16.70;82.90;;;16.97;40.14;102518.66;4956192;28;97000;-64
2022/04/17 04:54:24;;;;;;;1.70;1.60;;;16.70;82.90;;;16.89;40.29;102519.78;4947817;28;98598;-63
2022/04/17 04:56:50;;;;;;;1.40;1.30;;;16.50;80.60;;;16.83;40.20;102519.97;4957356;28;97071;-64
2022/04/17 04:59:16;;;;;;;1.37;1.23;;;16.40;80.70;;;16.77;40.41;102514.84;4958006;28;98419;-63
2022/04/17 05:01:42;;;;;;;1.53;1.37;;;16.30;82.90;;;16.73;40.29;102507.88;4966581;28;97351;-63
2022/04/17 05:04:08;;;;;;;1.70;1.50;;;16.20;84.60;;;16.74;40.42;102503.41;4978732;28;97802;-63
2022/04/17 05:06:34;;;;;;;1.37;1.27;;;16.30;84.90;;;16.72;40.44;102500.78;4956569;28;97621;-63
2022/04/17 05:08:59;;;;;;;2.27;1.70;;;16.30;82.60;;;16.68;40.49;102512.50;4975591;28;97278;-63
2022/04/17 05:11:25;;;;;;;1.77;1.57;;;16.20;80.20;;;16.60;40.72;102511.81;4964818;28;109121;-63
2022/04/17 05:13:51;;;;;;;2.63;1.97;;;16.10;78.50;;;16.49;40.96;102520.16;4957042;28;97788;-63
2022/04/17 05:16:17;;;;;;;2.50;2.30;;;15.80;79.00;;;16.32;41.07;102512.66;4963722;28;98148;-63
2022/04/17 05:18:42;;;;;;;2.10;1.90;;;15.50;79.70;;;16.18;40.78;102520.19;4967311;28;97227;-63
2022/04/17 05:21:08;;;;;;;1.40;1.30;;;15.40;79.30;;;16.14;41.86;102523.88;4957861;28;97162;-63
2022/04/17 05:23:37;;;;;;;1.40;1.20;;;15.30;85.70;;;16.09;41.96;102514.28;4950795;28;97224;-63
2022/04/17 05:26:04;;;;;;;1.60;1.50;;;15.30;85.20;;;16.04;42.08;102522.38;4960238;28;97195;-63
2022/04/17 05:28:30;;;;;;;2.27;2.07;;;15.30;83.70;;;16.02;41.88;102529.53;4953055;28;97202;-63
2022/04/17 05:30:58;;;;;;;2.67;1.70;;;15.30;82.10;;;15.97;42.01;102526.16;4952240;28;104205;-63
2022/04/17 05:33:24;;;;;;;1.60;1.50;;;15.20;82.60;;;15.94;42.32;102526.25;4967580;28;97076;-63
2022/04/17 05:35:51;;;;;;;2.97;2.27;;;15.10;83.60;;;15.84;41.26;102530.94;4931707;28;100499;-63
2022/04/17 05:38:20;;;;;;;2.83;1.63;;;15.00;80.70;;;15.84;42.55;102536.28;4954220;28;96909;-63
2022/04/17 05:40:50;;;;;;;1.73;1.27;;;15.00;84.10;;;15.78;42.70;102531.13;4954160;28;96996;-63
2022/04/17 05:43:23;;;;;;;1.37;1.27;;;15.00;85.00;;;15.73;42.79;102525.03;4952733;28;97457;-62
2022/04/17 05:45:50;;;;;;;1.40;1.30;;;14.90;86.40;;;15.70;42.82;102523.34;4909798;28;101558;-62
2022/04/17 05:48:16;;;;;;;4.00;2.27;;;14.90;86.60;;;15.71;42.79;102530.41;4951560;28;96944;-63
2022/04/17 05:50:42;;;;;;;3.13;2.47;;;15.00;85.30;;;15.69;42.87;102523.38;4954986;28;97096;-63
2022/04/17 05:53:08;;;;;;;3.27;2.97;;;14.90;84.90;;;15.64;41.18;102518.22;4961225;28;98208;-63
2022/04/17 05:55:37;;;;;;;4.23;3.33;;;14.90;83.30;;;15.58;39.60;102518.31;4954450;28;112195;-63
2022/04/17 05:58:03;;;;;;;4.03;3.07;;;14.80;81.80;;;15.58;40.45;102518.31;4960208;28;97143;-63
2022/04/17 06:00:28;;;;;;;1.83;1.43;;;14.80;82.40;;;15.56;42.93;102525.47;4964583;28;97751;-63
2022/04/17 06:02:54;;;;;;;4.07;2.93;;;14.80;87.40;;;15.58;36.65;102523.63;4959135;28;102481;-63
2022/04/17 06:05:20;;;;;;;2.07;1.30;;;15.00;80.50;;;15.67;43.11;102515.44;4958310;28;96998;-66
2022/04/17 06:07:48;;;;;;;4.17;3.03;;;15.10;88.60;;;15.67;36.68;102518.13;4965565;28;96792;-63
2022/04/17 06:10:14;;;;;;;2.03;1.60;;;15.20;80.30;;;15.82;42.77;102518.59;4957757;28;97236;-63
2022/04/17 06:12:41;;;;;;;2.20;1.83;;;15.30;83.80;;;15.82;42.04;102515.94;4954356;28;97814;-63
2022/04/17 06:15:08;;;;;;;1.50;1.40;;;15.30;84.20;;;15.88;42.51;102515.75;4959710;28;97354;-63
2022/04/17 06:17:44;;;;;;;2.17;1.50;;;15.40;89.00;;;16.00;41.86;102515.41;4942879;28;97812;-63
2022/04/17 06:20:15;;;;;;;1.33;1.20;;;15.60;80.30;;;16.06;42.23;102515.25;4950217;28;96668;-63
2022/04/17 06:22:41;;;;;;;1.50;1.20;;;15.70;87.80;;;16.05;42.17;102517.00;4935403;28;99131;-63
2022/04/17 06:25:10;;;;;;;2.50;1.83;;;15.70;84.90;;;16.09;36.37;102509.81;4957458;28;110406;-63
2022/04/17 06:27:43;;;;;;;1.80;1.33;;;15.80;78.00;;;16.12;41.73;102509.72;4955031;28;97546;-64
2022/04/17 06:30:17;;;;;;;3.17;2.20;;;15.80;85.30;;;16.22;37.63;102516.53;4958886;28;96818;-63
2022/04/17 06:32:43;;;;;;;1.57;1.30;;;16.00;79.30;;;16.17;41.64;102513.13;4950876;28;97526;-64
2022/04/17 06:35:12;;;;;;;1.40;1.10;;;15.80;85.50;;;16.27;41.69;102509.28;4953906;28;97161;-63
2022/04/17 06:37:59;;;;;;;1.83;1.20;;;16.00;85.80;;;16.30;41.34;102506.50;4957430;28;97384;-64
2022/04/17 06:40:27;;;;;;;1.13;1.03;;;16.00;85.40;;;16.49;41.32;102503.28;4950566;28;96766;-64
2022/04/17 06:43:01;;;;;;;2.03;1.50;;;16.30;83.90;;;16.39;40.63;102501.84;4956467;28;97536;-63
2022/04/17 06:45:28;;;;;;;1.27;1.10;;;16.30;80.50;;;16.56;41.18;102502.19;4947149;28;97029;-63
2022/04/17 06:47:55;;;;;;;1.60;1.13;;;16.50;85.30;;;16.68;40.75;102499.16;4958244;28;97101;-64
2022/04/17 06:50:22;;;;;;;1.13;1.03;;;16.60;84.70;;;16.69;40.73;102494.69;4956371;28;101760;-64
2022/04/17 06:52:49;;;;;;;2.07;1.20;;;16.60;84.40;;;16.78;40.18;102489.97;4957438;28;100157;-64
2022/04/17 06:55:15;;;;;;;2.40;1.30;;;16.80;83.90;;;16.86;40.00;102498.56;4954346;28;97100;-64
2022/04/17 06:57:50;;;;;;;1.07;1.00;;;16.90;82.60;;;16.95;39.63;102498.25;4958878;28;96993;-64
2022/04/17 07:00:17;;;;;;;1.10;1.10;;;17.10;82.40;;;17.07;39.96;102485.41;4952265;28;97239;-64
2022/04/17 07:02:44;;;;;;;2.17;1.97;;;17.20;82.50;;;17.15;37.77;102494.03;4958330;28;97049;-64
2022/04/17 07:05:12;;;;;;;1.43;1.20;;;17.20;74.90;;;17.23;39.06;102497.34;4962181;28;98769;-66
2022/04/17 07:07:38;;;;;;;1.20;1.10;;;17.30;81.50;;;17.27;39.24;102482.09;4907873;28;97424;-64
2022/04/17 07:10:05;;;;;;;2.03;1.10;;;17.40;80.30;;;17.24;39.24;102483.06;4960954;28;97091;-65
2022/04/17 07:12:31;;;;;;;1.10;1.00;;;17.40;81.00;;;17.33;39.02;102492.53;4942314;28;96920;-65
2022/04/17 07:15:00;;;;;;;1.60;1.20;;;17.50;81.00;;;17.33;39.13;102485.41;4967596;28;97198;-65
2022/04/17 07:17:37;;;;;;;2.73;1.30;;;17.50;80.20;;;17.42;39.00;102478.88;4955422;28;97163;-64
2022/04/17 07:20:06;;;;;;;1.83;1.50;;;17.60;80.60;;;17.39;38.79;102474.53;4944759;28;96999;-63
2022/04/17 07:22:37;;;;;;;1.30;1.20;;;17.60;80.40;;;17.43;38.64;102478.81;4957616;28;97955;-65
2022/04/17 07:25:05;;;;;;;1.80;1.40;;;17.60;80.10;;;17.37;39.06;102471.06;4960307;28;97574;-65
2022/04/17 07:27:42;;;;;;;2.60;1.60;;;17.60;80.20;;;17.48;37.96;102474.19;4958562;28;97124;-65
2022/04/17 07:30:16;;;;;;;2.13;1.40;;;17.70;77.50;;;17.47;38.50;102464.44;4960017;28;97122;-65
2022/04/17 07:32:44;;;;;;;2.63;1.40;;;17.70;80.20;;;17.42;38.56;102461.06;4962584;28;97522;-64
2022/04/17 07:35:11;;;;;;;2.00;1.63;;;17.60;79.70;;;17.48;37.94;102454.63;4960501;28;97236;-65
2022/04/17 07:37:38;;;;;;;2.37;1.70;;;17.70;78.50;;;17.49;38.31;102457.25;4955712;28;96883;-64
2022/04/17 07:40:19;;;;;;;2.30;1.60;;;17.70;78.30;;;17.48;36.72;102460.84;4961440;28;97536;-64
2022/04/17 07:42:50;;;;;;;1.97;1.30;;;17.60;70.50;;;17.45;37.78;102460.97;4932673;28;97439;-64
2022/04/17 07:45:17;;;;;;;1.30;1.20;;;17.50;77.50;;;17.37;38.29;102465.72;4944837;28;97046;-64
2022/04/17 07:47:44;;;;;;;3.50;1.60;;;17.50;79.50;;;17.36;37.39;102461.31;4941883;28;96789;-64
2022/04/17 07:50:13;;;;;;;1.97;1.33;;;17.50;76.10;;;17.40;38.08;102462.94;4957476;28;97114;-65
2022/04/17 07:52:40;;;;;;;2.83;1.50;;;17.50;79.00;;;17.48;36.65;102458.19;4955208;28;97350;-65
2022/04/17 07:55:06;;;;;;;2.67;1.77;;;17.60;75.50;;;17.45;32.32;102458.28;4968885;28;97479;-64
2022/04/17 08:00:21;;;;;;;3.40;1.77;;;17.40;76.40;;;17.37;38.25;102462.19;4959445;28;97250;-64
2022/04/17 08:03:07;;;;;;;3.23;1.70;;;17.50;78.70;;;17.38;34.19;102463.91;4966217;28;102584;-64
2022/04/17 08:05:40;;;;;;;1.70;1.53;;;17.50;70.80;;;17.44;37.30;102459.22;4957747;28;97164;-64
2022/04/17 08:08:08;;;;;;;2.60;1.33;;;17.50;76.40;;;17.41;38.12;102453.13;4943297;28;96696;-65
2022/04/17 08:10:35;;;;;;;1.73;1.43;;;17.60;78.20;;;17.44;37.41;102453.88;4952401;28;97494;-64
2022/04/17 08:13:02;;;;;;;1.80;1.40;;;17.60;77.40;;;17.45;38.39;102455.63;4960437;28;98017;-64
2022/04/17 08:15:28;;;;;;;1.63;1.00;;;17.70;79.60;;;17.43;38.47;102457.47;4954268;28;98888;-64
2022/04/17 08:17:54;;;;;;;1.90;1.37;;;17.70;79.10;;;17.40;37.76;102446.06;4957153;28;114315;-66
2022/04/17 08:20:20;;;;;;;1.47;1.10;;;17.70;78.00;;;17.54;37.94;102444.63;4955459;28;97343;-65
2022/04/17 08:22:46;;;;;;;3.20;1.80;;;17.80;78.50;;;17.64;36.91;102444.28;4957791;28;102421;-64
2022/04/17 08:25:12;;;;;;;1.80;1.40;;;17.80;76.00;;;17.65;34.66;102438.00;4949386;28;98730;-64
2022/04/17 08:27:52;;;;;;;1.77;1.30;;;17.80;72.50;;;17.68;37.14;102440.59;4957934;28;96891;-64
2022/04/17 08:30:32;;;;;;;2.73;1.10;;;17.80;77.00;;;17.69;36.86;102437.88;4960783;28;97156;-64
2022/04/17 08:33:00;;;;;;;2.60;1.30;;;17.80;76.30;;;17.55;37.14;102435.69;4954524;28;101772;-64
2022/04/17 08:35:26;;;;;;;1.40;1.20;;;17.70;75.40;;;17.49;36.74;102430.56;4954560;28;98125;-66
2022/04/17 08:37:52;;;;;;;2.20;1.33;;;17.70;77.20;;;17.44;36.75;102442.34;4968743;28;97144;-64
2022/04/17 08:40:22;;;;;;;2.40;1.43;;;17.70;76.00;;;17.58;36.64;102439.19;4942967;28;97411;-64
2022/04/17 08:42:53;;;;;;;2.90;1.40;;;17.70;72.70;;;17.66;36.05;102437.09;4922988;28;104088;-63
2022/04/17 08:45:20;;;;;;;2.07;1.57;;;17.80;73.60;;;17.67;35.21;102431.72;4947794;28;97496;-65
2022/04/17 08:47:46;;;;;;;1.33;1.10;;;17.80;72.60;;;17.64;36.99;102429.13;4956653;28;97329;-64
2022/04/17 08:50:16;;;;;;;1.67;1.40;;;17.70;77.20;;;17.67;33.48;102422.84;4966937;28;96764;-65
2022/04/17 08:52:46;;;;;;;1.70;1.30;;;17.80;71.70;;;17.62;37.53;102424.78;4942262;28;98920;-64
2022/04/17 08:55:12;;;;;;;2.97;1.90;;;17.80;77.80;;;17.64;35.80;102413.13;4948108;28;97371;-64
2022/04/17 08:57:39;;;;;;;1.33;1.23;;;17.80;74.20;;;17.68;36.97;102411.22;4945285;28;97537;-64
2022/04/17 09:00:08;;;;;;;1.97;1.33;;;17.80;77.40;;;17.71;36.07;102420.00;4947326;28;97760;-64
2022/04/17 09:02:35;;;;;;;3.33;1.53;;;17.80;73.00;;;17.70;32.04;102407.59;4961431;28;96897;-64
2022/04/17 09:05:05;;;;;;;2.20;1.70;;;17.70;68.60;;;17.58;34.92;102412.50;4954168;28;97119;-64
2022/04/17 09:07:50;;;;;;;1.83;1.20;;;17.60;69.10;;;17.60;36.96;102411.50;4942443;28;102720;-64
2022/04/17 09:10:29;;;;;;;2.63;1.53;;;17.60;76.40;;;17.60;37.13;102414.16;4946844;28;97124;-65
2022/04/17 09:12:57;;;;;;;1.10;1.00;;;17.60;75.70;;;17.61;37.24;102407.03;4944032;28;102138;-63
2022/04/17 09:15:30;;;;;;;1.87;1.50;;;17.70;77.10;;;17.69;36.19;102399.66;4941912;28;97239;-65
2022/04/17 09:17:55;;;;;;;1.53;1.03;;;17.80;75.90;;;17.61;37.61;102399.91;4940909;28;98123;-65
2022/04/17 09:20:24;;;;;;;1.57;1.07;;;17.80;77.80;;;17.55;37.83;102406.34;4941071;28;96964;-68
2022/04/17 09:22:59;;;;;;;1.57;1.17;;;17.80;78.20;;;17.60;34.87;102390.16;4951768;28;102035;-65
2022/04/17 09:25:26;;;;;;;2.53;1.60;;;17.80;72.80;;;17.69;35.56;102394.31;4956068;28;97070;-64
2022/04/17 09:28:08;;;;;;;1.30;1.20;;;17.80;70.70;;;17.75;37.06;102380.72;4973342;28;97394;-65
2022/04/17 09:30:40;;;;;;;1.93;1.27;;;17.80;76.30;;;17.77;35.57;102381.53;4934605;28;97062;-65
2022/04/17 09:33:10;;;;;;;1.70;1.10;;;17.80;71.10;;;17.65;37.60;102376.63;4941918;28;97628;-64
2022/04/17 09:35:37;;;;;;;1.57;1.30;;;17.80;77.80;;;17.72;37.03;102370.19;4925954;28;97345;-65
2022/04/17 09:38:08;;;;;;;1.30;0.97;;;17.90;77.00;;;17.68;37.33;102368.53;4932271;28;97106;-66
2022/04/17 09:40:37;;;;;;;1.40;1.20;;;17.90;77.30;;;17.69;37.24;102367.63;4925296;28;98057;-65
2022/04/17 09:43:17;;;;;;;1.60;1.13;;;17.90;77.30;;;17.78;37.15;102367.25;4923915;28;99137;-64
2022/04/17 09:46:10;;;;;;;2.00;1.30;;;18.00;77.20;;;17.62;37.72;102352.72;4921201;28;97479;-64
2022/04/17 09:48:49;;;;;;;2.03;1.30;;;17.90;77.70;;;17.54;37.24;102348.56;4912842;28;99138;-65
2022/04/17 09:51:24;;;;;;;1.80;1.27;;;17.90;77.50;;;17.61;37.61;102353.66;4909388;28;97138;-64
2022/04/17 09:54:05;;;;;;;2.10;1.50;;;17.90;77.40;;;17.68;36.82;102337.41;4931169;28;104105;-63
2022/04/17 09:56:40;;;;;;;2.73;1.27;;;17.90;75.10;;;17.71;37.90;102341.75;4936373;28;104202;-64
2022/04/17 09:59:23;;;;;;;3.63;1.83;;;17.90;77.50;;;17.75;36.11;102335.34;4935736;28;97698;-64
2022/04/17 10:01:57;;;;;;;2.53;1.40;;;18.00;73.90;;;17.83;36.73;102328.78;4948351;28;97203;-64
2022/04/17 10:04:25;;;;;;;1.93;1.23;;;18.00;76.00;;;17.83;36.39;102325.25;4929347;28;98692;-64
2022/04/17 10:06:54;;;;;;;1.33;1.00;;;18.00;74.40;;;17.78;37.39;102319.22;4936124;28;98915;-65
2022/04/17 10:09:22;;;;;;;2.33;1.23;;;18.00;77.50;;;17.89;33.67;102321.47;4931918;28;97794;-65
2022/04/17 10:11:51;;;;;;;1.73;1.10;;;18.00;71.60;;;17.77;37.29;102314.81;4942154;28;97453;-64
2022/04/17 10:14:17;;;;;;;1.97;1.20;;;18.00;77.30;;;17.84;36.98;102313.66;4937345;28;98050;-63
2022/04/17 10:16:48;;;;;;;2.43;1.63;;;18.10;76.60;;;17.80;35.66;102304.03;4929770;28;100217;-63
2022/04/17 10:19:24;;;;;;;2.23;1.30;;;18.10;73.70;;;17.87;36.61;102308.19;4932435;28;98536;-63
2022/04/17 10:21:51;;;;;;;1.03;0.97;;;18.10;75.80;;;17.84;36.82;102305.63;4891239;28;98681;-63
2022/04/17 10:24:19;;;;;;;2.30;1.53;;;18.10;76.10;;;17.89;29.39;102295.63;4925418;28;99249;-63
2022/04/17 10:26:55;;;;;;;2.17;0.90;;;18.10;63.80;;;17.76;36.51;102294.38;4925063;28;98337;-64
2022/04/17 10:29:41;;;;;;;1.57;1.30;;;18.00;76.00;;;17.80;36.49;102285.34;4923366;28;97219;-64